sensor_id;sensor_type;location;lat;lon;timestamp;P1;durP1;ratioP1;P2;durP2;ratioP2
57299;SDS011;43148;50.966;18.198;2024-03-08T00:02:52;32.70;;;26.50;;
57299;SDS011;43148;50.966;18.198;2024-03-08T00:12:36;34.40;;;28.80;;
57299;SDS011;43148;50.966;18.198;2024-03-08T00:22:20;32.10;;;27.70;;
57299;SDS011;43148;50.966;18.198;2024-03-08T00:32:06;29.70;;;26.70;;
57299;SDS011;43148;50.966;18.198;2024-03-08T00:41:54;26.80;;;24.00;;
57299;SDS011;43148;50.966;18.198;2024-03-08T00:51:38;25.30;;;22.60;;
57299;SDS011;43148;50.966;18.198;2024-03-08T01:01:25;30.20;;;26.30;;
57299;SDS011;43148;50.966;18.198;2024-03-08T01:11:09;27.60;;;23.90;;
57299;SDS011;43148;50.966;18.198;2024-03-08T01:20:52;32.00;;;27.50;;
57299;SDS011;43148;50.966;18.198;2024-03-08T01:30:35;33.80;;;28.90;;
57299;SDS011;43148;50.966;18.198;2024-03-08T01:40:19;29.10;;;25.90;;
57299;SDS011;43148;50.966;18.198;2024-03-08T01:50:02;34.00;;;25.80;;
57299;SDS011;43148;50.966;18.198;2024-03-08T01:59:52;31.70;;;26.80;;
57299;SDS011;43148;50.966;18.198;2024-03-08T02:09:36;28.50;;;25.40;;
57299;SDS011;43148;50.966;18.198;2024-03-08T02:19:23;26.50;;;23.40;;
57299;SDS011;43148;50.966;18.198;2024-03-08T02:29:08;37.70;;;27.70;;
57299;SDS011;43148;50.966;18.198;2024-03-08T02:38:51;29.10;;;25.90;;
57299;SDS011;43148;50.966;18.198;2024-03-08T02:48:33;31.80;;;28.80;;
57299;SDS011;43148;50.966;18.198;2024-03-08T02:58:15;25.60;;;22.90;;
57299;SDS011;43148;50.966;18.198;2024-03-08T03:07:59;23.40;;;21.10;;
57299;SDS011;43148;50.966;18.198;2024-03-08T03:17:48;28.40;;;25.60;;
57299;SDS011;43148;50.966;18.198;2024-03-08T03:27:49;30.30;;;27.10;;
57299;SDS011;43148;50.966;18.198;2024-03-08T03:37:40;30.80;;;27.70;;
57299;SDS011;43148;50.966;18.198;2024-03-08T03:47:25;30.80;;;27.60;;
57299;SDS011;43148;50.966;18.198;2024-03-08T03:57:11;32.30;;;27.00;;
57299;SDS011;43148;50.966;18.198;2024-03-08T04:06:54;38.00;;;28.20;;
57299;SDS011;43148;50.966;18.198;2024-03-08T04:16:39;27.80;;;25.00;;
57299;SDS011;43148;50.966;18.198;2024-03-08T04:26:21;33.50;;;28.10;;
57299;SDS011;43148;50.966;18.198;2024-03-08T04:36:04;32.70;;;29.20;;
57299;SDS011;43148;50.966;18.198;2024-03-08T04:45:48;35.80;;;30.70;;
57299;SDS011;43148;50.966;18.198;2024-03-08T04:55:34;36.50;;;28.10;;
57299;SDS011;43148;50.966;18.198;2024-03-08T05:05:18;36.30;;;30.10;;
57299;SDS011;43148;50.966;18.198;2024-03-08T05:15:04;32.70;;;29.50;;
57299;SDS011;43148;50.966;18.198;2024-03-08T05:24:49;38.70;;;31.90;;
57299;SDS011;43148;50.966;18.198;2024-03-08T05:34:32;37.00;;;28.60;;
57299;SDS011;43148;50.966;18.198;2024-03-08T05:44:17;35.30;;;29.90;;
57299;SDS011;43148;50.966;18.198;2024-03-08T05:54:04;31.60;;;27.70;;
57299;SDS011;43148;50.966;18.198;2024-03-08T06:03:55;28.00;;;25.30;;
57299;SDS011;43148;50.966;18.198;2024-03-08T06:13:45;27.40;;;24.70;;
57299;SDS011;43148;50.966;18.198;2024-03-08T06:23:31;28.70;;;24.10;;
57299;SDS011;43148;50.966;18.198;2024-03-08T06:33:15;27.30;;;24.50;;
57299;SDS011;43148;50.966;18.198;2024-03-08T06:42:58;25.40;;;23.10;;
57299;SDS011;43148;50.966;18.198;2024-03-08T06:52:41;28.50;;;24.10;;
57299;SDS011;43148;50.966;18.198;2024-03-08T07:02:34;25.00;;;20.70;;
57299;SDS011;43148;50.966;18.198;2024-03-08T07:12:18;27.40;;;24.80;;
57299;SDS011;43148;50.966;18.198;2024-03-08T07:22:03;24.40;;;21.90;;
57299;SDS011;43148;50.966;18.198;2024-03-08T07:32:05;21.60;;;19.80;;
57299;SDS011;43148;50.966;18.198;2024-03-08T07:42:04;19.30;;;17.50;;
57299;SDS011;43148;50.966;18.198;2024-03-08T07:51:50;12.80;;;12.00;;
57299;SDS011;43148;50.966;18.198;2024-03-08T08:01:33;16.50;;;14.50;;
57299;SDS011;43148;50.966;18.198;2024-03-08T08:11:18;16.80;;;15.10;;
57299;SDS011;43148;50.966;18.198;2024-03-08T08:21:04;14.20;;;13.10;;
57299;SDS011;43148;50.966;18.198;2024-03-08T08:30:50;14.20;;;13.10;;
57299;SDS011;43148;50.966;18.198;2024-03-08T08:40:37;13.00;;;12.00;;
57299;SDS011;43148;50.966;18.198;2024-03-08T08:50:25;20.90;;;12.80;;
57299;SDS011;43148;50.966;18.198;2024-03-08T09:00:13;13.60;;;12.60;;
57299;SDS011;43148;50.966;18.198;2024-03-08T09:10:00;12.00;;;11.20;;
57299;SDS011;43148;50.966;18.198;2024-03-08T09:17:20;20.70;;;18.90;;
57299;SDS011;43148;50.966;18.198;2024-03-08T09:27:16;12.90;;;12.00;;
57299;SDS011;43148;50.966;18.198;2024-03-08T09:36:59;15.90;;;14.60;;
57299;SDS011;43148;50.966;18.198;2024-03-08T09:46:41;14.40;;;13.30;;
57299;SDS011;43148;50.966;18.198;2024-03-08T09:56:37;19.80;;;17.80;;
57299;SDS011;43148;50.966;18.198;2024-03-08T10:06:43;17.40;;;16.00;;
57299;SDS011;43148;50.966;18.198;2024-03-08T10:16:31;18.70;;;17.30;;
57299;SDS011;43148;50.966;18.198;2024-03-08T10:26:17;10.00;;;9.20;;
57299;SDS011;43148;50.966;18.198;2024-03-08T10:33:45;25.60;;;23.10;;
57299;SDS011;43148;50.966;18.198;2024-03-08T10:43:32;24.20;;;18.80;;
57299;SDS011;43148;50.966;18.198;2024-03-08T10:53:43;12.80;;;12.00;;
57299;SDS011;43148;50.966;18.198;2024-03-08T11:25:01;11.20;;;10.30;;
57299;SDS011;43148;50.966;18.198;2024-03-08T11:35:00;12.90;;;12.10;;
57299;SDS011;43148;50.966;18.198;2024-03-08T11:44:52;13.80;;;12.80;;
57299;SDS011;43148;50.966;18.198;2024-03-08T11:54:38;13.00;;;12.10;;
57299;SDS011;43148;50.966;18.198;2024-03-08T12:04:31;11.70;;;10.70;;
57299;SDS011;43148;50.966;18.198;2024-03-08T12:14:19;10.50;;;9.90;;
57299;SDS011;43148;50.966;18.198;2024-03-08T12:24:14;13.00;;;11.90;;
57299;SDS011;43148;50.966;18.198;2024-03-08T12:34:36;11.90;;;11.10;;
57299;SDS011;43148;50.966;18.198;2024-03-08T12:44:25;9.60;;;8.80;;
57299;SDS011;43148;50.966;18.198;2024-03-08T12:54:16;19.80;;;12.60;;
57299;SDS011;43148;50.966;18.198;2024-03-08T13:04:03;10.60;;;9.60;;
57299;SDS011;43148;50.966;18.198;2024-03-08T13:13:49;15.40;;;11.10;;
57299;SDS011;43148;50.966;18.198;2024-03-08T13:23:36;11.80;;;10.60;;
57299;SDS011;43148;50.966;18.198;2024-03-08T13:33:37;22.60;;;13.10;;
57299;SDS011;43148;50.966;18.198;2024-03-08T13:43:37;14.20;;;12.90;;
57299;SDS011;43148;50.966;18.198;2024-03-08T13:53:22;11.00;;;10.30;;
57299;SDS011;43148;50.966;18.198;2024-03-08T14:03:09;11.80;;;10.80;;
57299;SDS011;43148;50.966;18.198;2024-03-08T14:13:03;14.40;;;13.10;;
57299;SDS011;43148;50.966;18.198;2024-03-08T14:22:56;13.20;;;12.30;;
57299;SDS011;43148;50.966;18.198;2024-03-08T14:32:58;14.10;;;13.10;;
57299;SDS011;43148;50.966;18.198;2024-03-08T14:42:50;18.80;;;17.20;;
57299;SDS011;43148;50.966;18.198;2024-03-08T14:59:57;8.60;;;6.80;;
57299;SDS011;43148;50.966;18.198;2024-03-08T15:09:55;12.30;;;11.40;;
57299;SDS011;43148;50.966;18.198;2024-03-08T15:19:48;15.60;;;14.40;;
57299;SDS011;43148;50.966;18.198;2024-03-08T15:29:35;13.50;;;12.50;;
57299;SDS011;43148;50.966;18.198;2024-03-08T15:39:27;20.90;;;19.00;;
57299;SDS011;43148;50.966;18.198;2024-03-08T15:49:12;30.10;;;22.60;;
57299;SDS011;43148;50.966;18.198;2024-03-08T15:58:59;32.00;;;24.30;;
57299;SDS011;43148;50.966;18.198;2024-03-08T16:08:50;27.40;;;21.10;;
57299;SDS011;43148;50.966;18.198;2024-03-08T16:18:34;25.20;;;22.80;;
57299;SDS011;43148;50.966;18.198;2024-03-08T16:28:30;98.90;;;67.70;;
57299;SDS011;43148;50.966;18.198;2024-03-08T16:38:22;45.40;;;27.90;;
57299;SDS011;43148;50.966;18.198;2024-03-08T16:48:14;123.50;;;71.60;;
57299;SDS011;43148;50.966;18.198;2024-03-08T16:58:02;152.90;;;92.50;;
57299;SDS011;43148;50.966;18.198;2024-03-08T17:07:46;81.00;;;47.40;;
57299;SDS011;43148;50.966;18.198;2024-03-08T17:17:36;43.60;;;35.10;;
57299;SDS011;43148;50.966;18.198;2024-03-08T17:27:24;45.90;;;30.00;;
57299;SDS011;43148;50.966;18.198;2024-03-08T17:37:12;47.60;;;29.80;;
57299;SDS011;43148;50.966;18.198;2024-03-08T17:46:56;47.10;;;33.90;;
57299;SDS011;43148;50.966;18.198;2024-03-08T17:56:41;56.70;;;37.80;;
57299;SDS011;43148;50.966;18.198;2024-03-08T18:06:32;69.10;;;36.40;;
57299;SDS011;43148;50.966;18.198;2024-03-08T18:16:31;62.90;;;32.40;;
57299;SDS011;43148;50.966;18.198;2024-03-08T18:26:30;39.30;;;26.40;;
57299;SDS011;43148;50.966;18.198;2024-03-08T18:36:17;24.50;;;20.90;;
57299;SDS011;43148;50.966;18.198;2024-03-08T18:46:03;23.10;;;20.80;;
57299;SDS011;43148;50.966;18.198;2024-03-08T18:55:51;20.80;;;18.70;;
57299;SDS011;43148;50.966;18.198;2024-03-08T19:05:41;18.90;;;17.40;;
57299;SDS011;43148;50.966;18.198;2024-03-08T19:15:30;23.00;;;14.40;;
57299;SDS011;43148;50.966;18.198;2024-03-08T19:25:23;19.60;;;17.70;;
57299;SDS011;43148;50.966;18.198;2024-03-08T19:35:23;13.60;;;12.30;;
57299;SDS011;43148;50.966;18.198;2024-03-08T19:45:25;21.60;;;19.40;;
57299;SDS011;43148;50.966;18.198;2024-03-08T19:55:20;21.40;;;19.50;;
57299;SDS011;43148;50.966;18.198;2024-03-08T20:05:10;29.70;;;24.30;;
57299;SDS011;43148;50.966;18.198;2024-03-08T20:15:04;27.30;;;24.40;;
57299;SDS011;43148;50.966;18.198;2024-03-08T20:25:20;25.80;;;23.10;;
57299;SDS011;43148;50.966;18.198;2024-03-08T20:35:30;30.00;;;26.10;;
57299;SDS011;43148;50.966;18.198;2024-03-08T20:52:54;23.20;;;21.00;;
57299;SDS011;43148;50.966;18.198;2024-03-08T21:03:00;29.10;;;23.80;;
57299;SDS011;43148;50.966;18.198;2024-03-08T21:12:55;30.70;;;26.40;;
57299;SDS011;43148;50.966;18.198;2024-03-08T21:22:41;25.40;;;22.60;;
57299;SDS011;43148;50.966;18.198;2024-03-08T21:32:26;26.50;;;24.10;;
57299;SDS011;43148;50.966;18.198;2024-03-08T21:42:11;31.90;;;28.00;;
57299;SDS011;43148;50.966;18.198;2024-03-08T21:51:57;25.90;;;23.20;;
57299;SDS011;43148;50.966;18.198;2024-03-08T22:01:42;33.50;;;27.40;;
57299;SDS011;43148;50.966;18.198;2024-03-08T22:11:32;31.50;;;28.10;;
57299;SDS011;43148;50.966;18.198;2024-03-08T22:21:18;34.10;;;29.50;;
57299;SDS011;43148;50.966;18.198;2024-03-08T22:31:06;37.80;;;30.00;;
57299;SDS011;43148;50.966;18.198;2024-03-08T22:40:50;20.60;;;17.40;;
57299;SDS011;43148;50.966;18.198;2024-03-08T22:50:38;30.80;;;26.30;;
57299;SDS011;43148;50.966;18.198;2024-03-08T23:00:24;39.10;;;33.10;;
57299;SDS011;43148;50.966;18.198;2024-03-08T23:10:10;34.40;;;29.50;;
57299;SDS011;43148;50.966;18.198;2024-03-08T23:20:11;23.90;;;19.80;;
57299;SDS011;43148;50.966;18.198;2024-03-08T23:30:15;56.50;;;34.30;;
57299;SDS011;43148;50.966;18.198;2024-03-08T23:40:02;41.60;;;29.70;;
57299;SDS011;43148;50.966;18.198;2024-03-08T23:49:47;53.60;;;35.60;;
57299;SDS011;43148;50.966;18.198;2024-03-08T23:59:35;43.00;;;34.50;;
